Time;durP1;ratioP1;P1;durP2;ratioP2;P2;SDS_P1;SDS_P2;PMS_P1;PMS_P2;Temp;Humidity;BMP_temperature;BMP_pressure;BME280_temperature;BME280_humidity;BME280_pressure;Samples;Min_cycle;Max_cycle;Signal;HPM_P1;HPM_P2
2021/03/06 00:00:11;;;;;;;5.05;2.70;;;;;;;-5.14;58.17;99636.53;5058220;28;20060;-53
2021/03/06 00:02:37;;;;;;;4.22;2.47;;;;;;;-5.58;57.99;99564.28;5052533;28;20052;-54
2021/03/06 00:05:04;;;;;;;4.28;2.50;;;;;;;-5.20;58.16;99633.13;5058541;28;20024;-56
2021/03/06 00:07:30;;;;;;;4.38;2.60;;;;;;;-5.29;58.14;99625.47;5054670;28;20048;-57
2021/03/06 00:09:55;;;;;;;3.58;2.40;;;;;;;-5.52;58.04;99589.41;5072370;28;20479;-56
2021/03/06 00:12:21;;;;;;;6.28;2.78;;;;;;;-5.30;58.55;99641.19;5054603;28;20037;-57
2021/03/06 00:14:46;;;;;;;13.65;2.70;;;;;;;-5.38;58.71;99644.78;5052483;28;20037;-56
2021/03/06 00:17:12;;;;;;;7.07;2.72;;;;;;;-5.44;58.69;99641.41;5060920;28;20033;-53
2021/03/06 00:19:37;;;;;;;5.60;3.25;;;;;;;-5.48;59.00;99632.78;5061301;28;20029;-56
2021/03/06 00:22:03;;;;;;;6.28;3.30;;;;;;;-5.49;58.95;99636.28;5055039;28;20123;-56
2021/03/06 00:24:28;;;;;;;5.15;2.65;;;;;;;-5.65;58.92;99613.06;5061198;28;20036;-55
2021/03/06 00:26:55;;;;;;;10.23;3.08;;;;;;;-5.64;59.26;99640.88;5053061;28;20040;-55
2021/03/06 00:29:20;;;;;;;8.02;4.57;;;;;;;-5.63;58.93;99633.94;5058588;28;20035;-52
2021/03/06 00:31:46;;;;;;;8.65;4.72;;;;;;;-5.64;59.13;99638.28;5070380;28;20033;-54
2021/03/06 00:34:11;;;;;;;9.02;3.50;;;;;;;-5.72;59.67;99634.06;5059922;28;20017;-54
2021/03/06 00:36:37;;;;;;;6.50;3.15;;;;;;;-5.74;59.37;99634.09;5053913;28;20559;-55
2021/03/06 00:39:04;;;;;;;4.50;2.60;;;;;;;-5.76;59.81;99648.91;5060602;28;20108;-52
2021/03/06 00:41:29;;;;;;;5.00;2.92;;;;;;;-5.76;59.66;99646.31;5057898;28;20085;-56
2021/03/06 00:43:55;;;;;;;6.63;3.65;;;;;;;-5.80;59.78;99642.00;5063137;28;20033;-53
2021/03/06 00:46:20;;;;;;;8.07;3.47;;;;;;;-5.82;59.19;99636.84;5052333;28;20033;-56
2021/03/06 00:48:46;;;;;;;5.43;2.83;;;;;;;-5.85;59.63;99633.41;5059101;28;20040;-57
2021/03/06 00:51:11;;;;;;;6.55;2.95;;;;;;;-5.95;59.53;99635.31;5061568;28;20620;-53
2021/03/06 00:53:37;;;;;;;6.18;3.08;;;;;;;-5.88;59.18;99643.91;5061208;28;20041;-52
2021/03/06 00:56:03;;;;;;;6.50;3.67;;;;;;;-6.09;59.58;99614.69;5050325;28;20123;-58
2021/03/06 00:58:29;;;;;;;7.07;3.28;;;;;;;-5.97;59.55;99639.69;5055741;28;20041;-51
2021/03/06 01:00:55;;;;;;;7.82;3.55;;;;;;;-5.98;59.58;99643.19;5049599;28;20119;-55
2021/03/06 01:03:21;;;;;;;4.40;2.63;;;;;;;-6.03;59.68;99638.06;5060657;28;20197;-55
2021/03/06 01:05:46;;;;;;;6.05;2.97;;;;;;;-6.02;59.69;99642.41;5049985;28;20567;-56
2021/03/06 01:08:12;;;;;;;7.10;3.30;;;;;;;-6.21;59.93;99615.75;5055094;28;20037;-54
2021/03/06 01:10:40;;;;;;;5.45;3.13;;;;;;;-6.47;59.83;99575.31;5068443;28;20044;-52
2021/03/06 01:13:07;;;;;;;6.00;3.25;;;;;;;-6.11;60.12;99637.31;5061379;28;20086;-51
2021/03/06 01:15:34;;;;;;;6.50;3.13;;;;;;;-6.13;59.62;99634.75;5051517;28;20044;-56
2021/03/06 01:18:00;;;;;;;7.05;3.50;;;;;;;-6.16;59.96;99631.31;5059680;28;20086;-58
2021/03/06 01:20:26;;;;;;;6.63;2.97;;;;;;;-6.20;59.81;99644.41;5055085;28;20048;-57
2021/03/06 01:22:52;;;;;;;7.70;3.38;;;;;;;-6.21;59.85;99647.03;5056994;28;20123;-55
2021/03/06 01:25:17;;;;;;;9.88;3.50;;;;;;;-6.21;59.85;99637.47;5067291;28;20131;-54
2021/03/06 01:27:43;;;;;;;7.40;3.17;;;;;;;-6.23;59.77;99633.16;5064861;28;20488;-56
2021/03/06 01:30:10;;;;;;;6.25;3.10;;;;;;;-6.27;59.89;99636.69;5059603;28;20041;-56
2021/03/06 01:32:36;;;;;;;9.13;3.30;;;;;;;-6.41;59.69;99629.94;5056485;28;20029;-54
2021/03/06 01:35:04;;;;;;;6.30;2.92;;;;;;;-6.30;59.68;99647.16;5057402;28;20047;-55
2021/03/06 01:37:29;;;;;;;5.55;3.20;;;;;;;-6.33;60.00;99647.22;5053501;28;20041;-55
2021/03/06 01:39:55;;;;;;;8.52;2.97;;;;;;;-6.38;59.96;99640.34;5058287;28;20040;-54
2021/03/06 01:42:21;;;;;;;7.47;3.17;;;;;;;-6.48;59.98;99630.91;5054715;28;20032;-57
2021/03/06 01:44:47;;;;;;;7.40;3.25;;;;;;;-6.40;59.67;99652.50;5058873;28;20136;-52
2021/03/06 01:47:13;;;;;;;5.25;2.78;;;;;;;-6.45;59.48;99648.25;5052944;28;20392;-52
2021/03/06 01:49:38;;;;;;;5.20;2.67;;;;;;;-6.82;59.85;99590.56;5057073;28;20037;-53
2021/03/06 01:52:05;;;;;;;8.55;2.97;;;;;;;-6.46;59.80;99662.16;5056612;28;20027;-55
2021/03/06 01:54:31;;;;;;;4.05;2.65;;;;;;;-6.47;59.69;99663.03;5059387;28;20443;-56
2021/03/06 01:56:57;;;;;;;6.30;3.30;;;;;;;-6.69;59.93;99624.25;5052359;28;20132;-53
2021/03/06 01:59:23;;;;;;;5.55;3.10;;;;;;;-6.55;59.98;99656.16;5061690;28;20439;-55
2021/03/06 02:01:48;;;;;;;7.07;2.88;;;;;;;-6.56;59.57;99657.06;5066892;28;20104;-57
2021/03/06 02:04:14;;;;;;;6.38;3.03;;;;;;;-6.63;60.06;99640.69;5066813;28;20455;-52
2021/03/06 02:06:40;;;;;;;5.25;3.17;;;;;;;-6.63;60.13;99645.88;5068759;28;20136;-53
2021/03/06 02:09:06;;;;;;;5.68;2.80;;;;;;;-6.67;59.65;99651.13;5060539;28;20035;-55
2021/03/06 02:11:47;;;;;;;4.30;2.78;;;;;;;-6.64;60.33;99658.91;5050895;28;20041;-58
2021/03/06 02:14:50;;;;;;;4.57;3.13;;;;;;;-6.64;60.43;99657.16;5066082;28;20039;-58
2021/03/06 02:17:31;;;;;;;5.85;3.00;;;;;;;-6.69;60.58;99658.97;5064413;28;20055;-54
2021/03/06 02:20:35;;;;;;;5.18;3.05;;;;;;;-6.68;60.57;99650.25;5063509;28;20040;-55
2021/03/06 02:23:15;;;;;;;6.00;3.20;;;;;;;-6.72;60.26;99677.22;5064016;28;20028;-58
2021/03/06 02:25:59;;;;;;;6.00;3.13;;;;;;;-6.72;60.83;99672.03;5051952;28;20439;-57
2021/03/06 02:28:40;;;;;;;8.23;3.78;;;;;;;-6.73;60.62;99674.66;5052745;28;20029;-55
2021/03/06 02:31:10;;;;;;;7.75;3.17;;;;;;;-6.74;60.34;99670.34;5050681;28;20037;-56
2021/03/06 02:33:39;;;;;;;9.23;3.72;;;;;;;-6.75;60.28;99660.78;5057418;28;20072;-57
2021/03/06 02:36:12;;;;;;;8.30;3.63;;;;;;;-6.75;60.49;99671.19;5070602;28;20488;-56
2021/03/06 02:38:40;;;;;;;7.93;4.05;;;;;;;-6.74;60.07;99689.41;5063952;28;20037;-55
2021/03/06 02:41:07;;;;;;;9.20;3.90;;;;;;;-6.80;60.10;99668.66;5052142;28;20049;-56
2021/03/06 02:43:33;;;;;;;7.55;4.50;;;;;;;-6.82;60.29;99684.28;5059709;28;20044;-53
2021/03/06 02:46:04;;;;;;;9.35;4.43;;;;;;;-6.96;60.74;99660.19;5052401;28;20036;-54
2021/03/06 02:48:29;;;;;;;14.80;5.30;;;;;;;-6.82;60.10;99686.03;5054346;28;20041;-55
2021/03/06 02:50:55;;;;;;;12.48;5.60;;;;;;;-6.84;60.52;99688.66;5057669;28;20043;-57
2021/03/06 02:53:21;;;;;;;14.05;5.05;;;;;;;-7.78;60.47;99537.06;5052845;28;20167;-54
2021/03/06 02:55:47;;;;;;;11.55;5.18;;;;;;;-6.90;60.61;99693.06;5050065;28;20032;-53
2021/03/06 02:58:33;;;;;;;11.43;5.53;;;;;;;-6.90;61.13;99709.56;5059714;28;20479;-53
2021/03/06 03:01:21;;;;;;;10.30;4.72;;;;;;;-6.85;61.31;99696.50;5057778;28;20189;-58
2021/03/06 03:04:23;;;;;;;10.82;4.85;;;;;;;-6.89;61.69;99703.47;5061571;28;20110;-58
2021/03/06 03:06:54;;;;;;;13.02;5.25;;;;;;;-6.95;60.57;99695.72;5049989;28;20369;-54
2021/03/06 03:09:24;;;;;;;10.35;5.07;;;;;;;-7.24;60.90;99650.91;5056027;28;20036;-52
2021/03/06 03:12:11;;;;;;;11.93;5.38;;;;;;;-6.99;62.06;99692.28;5056569;28;20033;-55
2021/03/06 03:14:47;;;;;;;12.32;5.30;;;;;;;-7.02;60.85;99687.13;5054518;28;20068;-56
2021/03/06 03:17:48;;;;;;;11.98;5.10;;;;;;;-7.02;62.00;99684.53;5050924;28;20389;-60
2021/03/06 03:20:32;;;;;;;11.13;5.22;;;;;;;-7.02;62.00;99691.44;5052213;28;20047;-55
2021/03/06 03:23:14;;;;;;;11.98;5.53;;;;;;;-7.08;61.93;99706.25;5056878;28;20032;-55
2021/03/06 03:25:42;;;;;;;12.23;5.50;;;;;;;-7.13;61.29;99699.38;5069175;28;20174;-54
2021/03/06 03:28:09;;;;;;;13.90;6.60;;;;;;;-7.18;61.50;99683.81;5066759;28;20415;-57
2021/03/06 03:30:35;;;;;;;14.48;6.00;;;;;;;-7.16;61.39;99704.59;5060424;28;20098;-55
2021/03/06 03:33:04;;;;;;;12.98;5.65;;;;;;;-7.15;61.58;99704.59;5061084;28;20055;-57
2021/03/06 03:35:31;;;;;;;13.30;6.60;;;;;;;-7.21;62.22;99694.28;5056380;28;20070;-54
2021/03/06 03:37:58;;;;;;;10.68;6.22;;;;;;;-7.14;61.48;99711.53;5056887;28;20400;-54
2021/03/06 03:40:25;;;;;;;14.35;6.97;;;;;;;-7.14;61.73;99716.75;5060137;28;20025;-56
2021/03/06 03:42:51;;;;;;;15.85;8.02;;;;;;;-7.13;61.72;99712.38;5054982;28;20032;-57
2021/03/06 03:45:20;;;;;;;18.75;8.20;;;;;;;-7.17;62.01;99703.75;5053390;28;20382;-54
2021/03/06 03:47:45;;;;;;;20.52;8.73;;;;;;;-7.19;61.63;99699.44;5055587;28;20127;-53
2021/03/06 03:50:13;;;;;;;21.23;8.88;;;;;;;-7.26;61.89;99690.81;5065866;28;20403;-50
2021/03/06 03:52:41;;;;;;;17.58;8.85;;;;;;;-7.22;62.04;99703.78;5058163;28;20064;-53
2021/03/06 03:55:08;;;;;;;16.65;8.93;;;;;;;-7.21;61.84;99709.88;5055854;28;20150;-51
2021/03/06 03:57:35;;;;;;;16.40;8.65;;;;;;;-7.25;61.77;99702.94;5057109;28;20098;-54
2021/03/06 04:00:02;;;;;;;15.25;7.88;;;;;;;-7.24;62.34;99700.34;5060424;28;20408;-56
2021/03/06 04:02:28;;;;;;;15.75;8.18;;;;;;;-7.35;62.10;99697.84;5066029;28;20493;-52
2021/03/06 04:04:55;;;;;;;15.38;8.25;;;;;;;-7.23;62.04;99722.88;5060907;28;20076;-53
2021/03/06 04:07:20;;;;;;;19.13;9.70;;;;;;;-7.37;62.20;99702.22;5053111;28;20033;-53
2021/03/06 04:09:46;;;;;;;16.77;8.65;;;;;;;-7.31;61.97;99709.09;5061861;28;20436;-51
2021/03/06 04:12:11;;;;;;;19.38;8.90;;;;;;;-7.19;62.25;99728.06;5054942;28;20448;-57
2021/03/06 04:14:36;;;;;;;15.77;7.97;;;;;;;-7.20;61.91;99701.19;5068258;28;20427;-54
2021/03/06 04:17:02;;;;;;;21.05;9.07;;;;;;;-7.17;62.23;99716.78;5069013;28;20040;-57
2021/03/06 04:19:27;;;;;;;17.10;8.77;;;;;;;-7.18;62.12;99714.16;5061308;28;20044;-57
2021/03/06 04:21:53;;;;;;;18.33;8.38;;;;;;;-7.14;61.55;99715.84;5069726;28;20040;-57
2021/03/06 04:24:18;;;;;;;18.50;8.45;;;;;;;-7.12;61.98;99727.13;5059682;28;20039;-57
2021/03/06 04:26:44;;;;;;;12.90;7.85;;;;;;;-7.08;61.68;99716.66;5070248;28;20162;-57
2021/03/06 04:29:09;;;;;;;22.80;8.52;;;;;;;-7.17;61.64;99688.16;5062954;28;20037;-54
2021/03/06 04:31:35;;;;;;;15.63;8.18;;;;;;;-6.99;61.36;99709.63;5053145;28;20408;-58
2021/03/06 04:34:00;;;;;;;19.20;8.00;;;;;;;-6.94;61.13;99710.47;5060561;28;20040;-55
2021/03/06 04:36:26;;;;;;;16.85;8.02;;;;;;;-7.38;61.05;99635.47;5071993;28;20089;-54
2021/03/06 04:38:51;;;;;;;19.65;8.52;;;;;;;-6.86;60.76;99715.59;5065090;28;20032;-60
2021/03/06 04:41:17;;;;;;;20.55;8.52;;;;;;;-6.85;60.83;99688.69;5052040;28;20401;-50
2021/03/06 04:43:42;;;;;;;18.65;7.80;;;;;;;-6.65;60.77;99727.50;5054927;28;20545;-56
2021/03/06 04:46:08;;;;;;;16.15;7.38;;;;;;;-6.54;60.91;99712.59;5071019;28;20428;-53
2021/03/06 04:48:35;;;;;;;15.88;7.97;;;;;;;-6.39;60.50;99714.16;5059868;28;20546;-56
2021/03/06 04:51:00;;;;;;;14.68;7.82;;;;;;;-6.23;59.80;99722.63;5068099;28;20033;-53
2021/03/06 04:53:26;;;;;;;15.90;6.97;;;;;;;-6.03;59.56;99718.03;5056037;28;20361;-54
2021/03/06 04:55:51;;;;;;;17.48;7.35;;;;;;;-5.79;58.71;99737.59;5070336;28;20084;-56
2021/03/06 04:58:17;;;;;;;16.75;7.30;;;;;;;-5.53;57.94;99703.31;5063885;28;20178;-55
2021/03/06 05:00:42;;;;;;;13.77;7.10;;;;;;;-4.95;56.49;99733.63;5054725;28;20508;-55
2021/03/06 05:03:08;;;;;;;13.80;6.65;;;;;;;-4.60;55.43;99724.25;5065193;28;20091;-51
2021/03/06 05:05:33;;;;;;;15.20;7.35;;;;;;;-4.30;54.78;99692.28;5054271;28;20033;-58
2021/03/06 05:07:59;;;;;;;13.90;7.38;;;;;;;-2.96;52.39;99716.13;5055164;28;20044;-52
2021/03/06 05:10:24;;;;;;;16.52;7.35;;;;;;;-1.89;49.85;99716.56;5066822;28;20144;-56
2021/03/06 05:12:50;;;;;;;12.20;7.25;;;;;;;-0.48;47.58;99723.25;5063095;28;20025;-54
2021/03/06 05:15:16;;;;;;;12.05;6.65;;;;;;;1.30;44.05;99717.91;5066495;28;20040;-55
2021/03/06 05:17:41;;;;;;;12.52;6.50;;;;;;;3.06;41.40;99728.19;5064994;28;20198;-59
2021/03/06 05:20:07;;;;;;;10.85;7.35;;;;;;;4.54;38.06;99682.25;5058859;28;20036;-55
2021/03/06 05:22:32;;;;;;;11.45;6.68;;;;;;;6.32;35.61;99726.38;5056237;28;20036;-58
2021/03/06 05:24:58;;;;;;;10.60;6.43;;;;;;;7.52;33.94;99721.13;5063786;28;20033;-53
2021/03/06 05:27:23;;;;;;;10.80;6.43;;;;;;;8.39;32.48;99714.97;5065907;28;20045;-53
2021/03/06 05:29:49;;;;;;;10.48;6.82;;;;;;;9.25;30.40;99673.91;5060172;28;20132;-56
2021/03/06 05:32:14;;;;;;;7.93;6.18;;;;;;;10.28;29.01;99677.38;5053305;28;20037;-57
2021/03/06 05:34:40;;;;;;;11.07;6.20;;;;;;;11.60;27.58;99736.94;5061568;28;20032;-53
2021/03/06 05:37:05;;;;;;;12.05;6.47;;;;;;;12.29;26.19;99725.66;5068909;28;20044;-54
2021/03/06 05:39:31;;;;;;;14.20;6.90;;;;;;;13.07;25.30;99735.63;5059806;28;20033;-51
2021/03/06 05:41:57;;;;;;;12.40;7.03;;;;;;;13.73;24.05;99727.75;5068953;28;20123;-57
2021/03/06 05:44:23;;;;;;;12.27;7.05;;;;;;;14.50;22.27;99728.38;5059925;28;20086;-53
2021/03/06 05:46:51;;;;;;;10.98;6.40;;;;;;;15.26;20.81;99728.06;5066934;28;20047;-55
2021/03/06 05:49:16;;;;;;;17.40;6.28;;;;;;;15.90;20.85;99727.81;5054474;28;20041;-56
2021/03/06 05:51:42;;;;;;;11.35;6.50;;;;;;;16.35;19.85;99720.41;5059923;28;20048;-58
2021/03/06 05:54:10;;;;;;;11.57;6.25;;;;;;;16.72;18.93;99734.53;5060490;28;20045;-61
2021/03/06 05:56:40;;;;;;;9.13;6.60;;;;;;;17.08;16.78;99736.94;5067991;28;20082;-60
2021/03/06 05:59:09;;;;;;;11.65;6.78;;;;;;;17.50;17.57;99735.09;5054991;28;20460;-56
2021/03/06 06:01:36;;;;;;;8.63;5.68;;;;;;;17.80;16.92;99739.91;5053586;28;20067;-60
2021/03/06 06:04:03;;;;;;;15.68;5.90;;;;;;;18.20;17.11;99735.41;5055991;28;20148;-59
2021/03/06 06:06:29;;;;;;;9.43;5.38;;;;;;;18.73;16.23;99737.50;5062041;28;20044;-56
2021/03/06 06:08:58;;;;;;;6.60;5.28;;;;;;;19.32;14.89;99733.34;5054011;28;20043;-56
2021/03/06 06:11:25;;;;;;;9.05;6.00;;;;;;;19.93;15.12;99751.44;5052986;28;20518;-55
2021/03/06 06:13:51;;;;;;;9.38;5.90;;;;;;;20.41;14.41;99730.31;5054425;28;20129;-57
2021/03/06 06:16:17;;;;;;;9.73;5.80;;;;;;;20.79;14.18;99739.16;5054615;28;20155;-52
2021/03/06 06:18:44;;;;;;;10.27;5.50;;;;;;;20.93;13.80;99734.69;5060152;28;20044;-57
2021/03/06 06:21:47;;;;;;;12.82;5.57;;;;;;;21.94;13.61;99724.59;5059100;28;20492;-61
2021/03/06 06:24:21;;;;;;;8.57;5.47;;;;;;;22.40;11.64;99738.63;5053321;28;20052;-58
2021/03/06 06:26:52;;;;;;;7.78;5.47;;;;;;;22.76;11.44;99732.06;5057553;28;20045;-60
2021/03/06 06:29:28;;;;;;;12.57;6.05;;;;;;;22.71;11.96;99690.91;5061267;28;20036;-59
2021/03/06 06:31:53;;;;;;;9.93;6.65;;;;;;;23.32;11.54;99697.25;5051825;28;20404;-57
2021/03/06 06:34:19;;;;;;;12.23;6.63;;;;;;;23.78;11.19;99731.06;5050766;28;20045;-58
2021/03/06 06:36:44;;;;;;;9.60;6.10;;;;;;;24.07;10.97;99726.19;5049697;28;20033;-58
2021/03/06 06:39:10;;;;;;;8.55;5.53;;;;;;;24.32;10.85;99730.06;5049877;28;20040;-56
2021/03/06 06:41:53;;;;;;;12.63;5.90;;;;;;;25.10;10.08;99730.91;5050023;28;20033;-60
2021/03/06 06:44:19;;;;;;;9.43;5.00;;;;;;;25.15;9.92;99719.28;5049895;28;20104;-61
2021/03/06 06:46:45;;;;;;;12.73;5.53;;;;;;;25.36;9.60;99721.66;5049442;28;20032;-64
2021/03/06 06:49:11;;;;;;;7.60;5.63;;;;;;;25.72;9.69;99726.59;5051972;28;20040;-62
2021/03/06 06:51:37;;;;;;;9.82;5.43;;;;;;;25.88;9.24;99716.94;5063951;28;20033;-63
2021/03/06 06:54:13;;;;;;;10.20;5.20;;;;;;;26.16;8.94;99718.31;5048102;28;20048;-61
2021/03/06 06:56:40;;;;;;;7.65;5.13;;;;;;;26.05;8.79;99729.00;5050319;28;20121;-62
2021/03/06 06:59:10;;;;;;;8.57;5.40;;;;;;;26.13;8.55;99727.84;5053072;28;20029;-61
2021/03/06 07:01:37;;;;;;;9.40;4.82;;;;;;;26.21;8.99;99724.81;5073112;28;20064;-61
2021/03/06 07:04:03;;;;;;;9.63;5.32;;;;;;;26.37;8.58;99720.59;5073959;28;20086;-63
2021/03/06 07:06:30;;;;;;;13.48;5.13;;;;;;;26.42;8.27;99721.84;5071754;28;20036;-64
2021/03/06 07:09:12;;;;;;;8.43;5.13;;;;;;;27.03;7.85;99717.19;5064695;28;20117;-61
2021/03/06 07:11:39;;;;;;;13.15;4.90;;;;;;;26.79;7.99;99722.59;5054596;28;20123;-62
2021/03/06 07:14:05;;;;;;;9.45;5.20;;;;;;;26.64;8.00;99705.69;5064144;28;20034;-62
2021/03/06 07:16:56;;;;;;;9.68;4.78;;;;;;;27.35;7.09;99716.88;5053280;28;20037;-56
2021/03/06 07:19:23;;;;;;;13.82;6.32;;;;;;;27.11;7.95;99706.91;5059520;28;20064;-62
2021/03/06 07:21:49;;;;;;;7.63;5.18;;;;;;;27.35;7.56;99714.13;5064537;28;20040;-62
2021/03/06 07:24:16;;;;;;;6.40;4.32;;;;;;;27.55;7.64;99710.22;5058821;28;20037;-61
2021/03/06 07:26:41;;;;;;;9.20;4.65;;;;;;;27.76;7.30;99707.94;5053143;28;20048;-62
2021/03/06 07:29:07;;;;;;;21.27;5.10;;;;;;;27.74;7.33;99704.59;5053123;28;20144;-62
2021/03/06 07:31:38;;;;;;;9.93;4.60;;;;;;;27.56;6.96;99709.13;5060935;28;20044;-61
2021/03/06 07:34:08;;;;;;;5.18;4.13;;;;;;;25.54;8.06;99700.84;5073511;28;20147;-62
2021/03/06 07:36:37;;;;;;;8.40;4.38;;;;;;;22.86;9.38;99703.50;5073326;28;20036;-64
2021/03/06 07:39:05;;;;;;;8.32;4.40;;;;;;;22.75;9.66;99705.81;5071260;28;20496;-60
2021/03/06 07:41:39;;;;;;;7.93;4.78;;;;;;;23.76;8.81;99702.25;5073501;28;20127;-62
2021/03/06 07:44:07;;;;;;;8.88;4.70;;;;;;;24.45;8.44;99697.19;5072934;28;20407;-65
2021/03/06 07:46:39;;;;;;;8.23;4.40;;;;;;;24.98;8.19;99684.22;5072793;28;20124;-60
2021/03/06 07:49:13;;;;;;;10.27;4.85;;;;;;;25.47;7.12;99679.00;5059704;28;20037;-58
2021/03/06 07:51:45;;;;;;;8.30;4.60;;;;;;;25.54;7.85;99692.63;5072195;28;20127;-60
2021/03/06 07:54:14;;;;;;;6.35;4.72;;;;;;;25.40;7.86;99671.88;5072532;28;20166;-58
2021/03/06 07:56:42;;;;;;;7.97;4.95;;;;;;;24.89;7.91;99669.97;5071242;28;20032;-58
2021/03/06 07:59:08;;;;;;;9.20;4.85;;;;;;;23.35;8.50;99676.91;5072477;28;20036;-58
2021/03/06 08:01:35;;;;;;;8.90;4.75;;;;;;;21.28;9.60;99684.09;5072475;28;20056;-58
2021/03/06 08:04:02;;;;;;;7.82;5.25;;;;;;;18.93;11.17;99685.47;5071192;28;20416;-60
2021/03/06 08:06:30;;;;;;;12.95;5.22;;;;;;;16.64;12.75;99685.88;5072898;28;20119;-57
2021/03/06 08:09:00;;;;;;;17.92;5.55;;;;;;;14.29;14.36;99679.31;5071058;28;20044;-56
2021/03/06 08:11:35;;;;;;;10.07;4.82;;;;;;;12.49;16.22;99679.06;5072406;28;20539;-60
2021/03/06 08:14:05;;;;;;;8.18;4.40;;;;;;;10.82;17.44;99685.50;5061252;28;20033;-60
2021/03/06 08:16:31;;;;;;;10.38;3.90;;;;;;;9.32;18.97;99685.84;5055032;28;20032;-60
2021/03/06 08:19:10;;;;;;;5.93;3.53;;;;;;;8.04;20.84;99697.88;5052543;28;20037;-60
2021/03/06 08:21:43;;;;;;;6.28;3.75;;;;;;;6.79;21.90;99670.13;5051925;28;20029;-59
2021/03/06 08:24:23;;;;;;;7.97;3.90;;;;;;;5.81;23.30;99681.75;5052369;28;20078;-61
2021/03/06 08:27:01;;;;;;;8.93;3.67;;;;;;;4.80;23.70;99671.91;5053041;28;20040;-60
2021/03/06 08:29:27;;;;;;;10.50;4.80;;;;;;;4.26;24.57;99686.47;5054314;28;20048;-53
2021/03/06 08:31:56;;;;;;;9.13;4.32;;;;;;;3.90;25.31;99692.03;5052249;28;20040;-53
2021/03/06 08:34:39;;;;;;;6.68;4.28;;;;;;;3.87;25.71;99690.41;5051955;28;20037;-58
2021/03/06 08:37:12;;;;;;;7.45;3.65;;;;;;;3.96;25.80;99695.19;5024481;28;20539;-60
2021/03/06 08:39:44;;;;;;;10.32;3.55;;;;;;;3.68;25.68;99595.25;5063271;28;20040;-57
2021/03/06 08:42:12;;;;;;;7.57;4.20;;;;;;;4.64;24.82;99685.22;5063867;28;20071;-58
2021/03/06 08:44:38;;;;;;;9.00;3.65;;;;;;;4.76;24.93;99680.13;5051854;28;20132;-56
2021/03/06 08:47:08;;;;;;;5.03;3.60;;;;;;;4.66;24.62;99685.97;5054250;28;20037;-59
2021/03/06 08:49:35;;;;;;;8.52;4.15;;;;;;;4.38;24.70;99698.19;5056094;28;20036;-60
2021/03/06 08:52:00;;;;;;;7.40;3.58;;;;;;;3.95;25.52;99679.41;5063009;28;20033;-60
2021/03/06 08:54:27;;;;;;;8.00;3.53;;;;;;;3.49;26.41;99691.56;5063095;28;20393;-58
2021/03/06 08:56:52;;;;;;;8.57;2.85;;;;;;;3.14;26.90;99704.84;5062041;28;20040;-56
2021/03/06 08:59:19;;;;;;;8.90;3.20;;;;;;;2.98;27.20;99705.63;5051752;28;20118;-60
2021/03/06 09:01:46;;;;;;;6.20;2.95;;;;;;;2.81;27.53;99687.13;5065420;28;20569;-58
2021/03/06 09:04:12;;;;;;;7.53;2.85;;;;;;;3.06;27.40;99718.47;5058815;28;20428;-57
2021/03/06 09:06:39;;;;;;;5.00;2.65;;;;;;;3.27;27.02;99679.44;5056752;28;20045;-57
2021/03/06 09:09:08;;;;;;;4.75;2.85;;;;;;;3.57;26.96;99713.16;5059867;28;20397;-59
2021/03/06 09:11:53;;;;;;;5.50;2.70;;;;;;;3.22;26.73;99639.16;5059659;28;20037;-52
2021/03/06 09:14:18;;;;;;;6.20;3.40;;;;;;;3.47;27.15;99697.84;5060295;28;20036;-58
2021/03/06 09:16:47;;;;;;;9.25;3.67;;;;;;;3.26;27.34;99684.84;5055005;28;20044;-59
2021/03/06 09:19:30;;;;;;;5.35;2.75;;;;;;;3.31;28.05;99690.75;5051297;28;20060;-61
2021/03/06 09:22:02;;;;;;;5.38;2.92;;;;;;;3.16;28.16;99692.41;5050798;28;20391;-55
2021/03/06 09:24:50;;;;;;;4.57;2.75;;;;;;;3.32;27.71;99697.75;5069192;28;20032;-59
2021/03/06 09:27:17;;;;;;;5.65;3.00;;;;;;;3.28;27.43;99698.84;5071109;28;20036;-58
2021/03/06 09:29:45;;;;;;;6.82;2.75;;;;;;;3.22;27.58;99700.00;5068865;28;20465;-58
2021/03/06 09:32:11;;;;;;;4.40;2.40;;;;;;;3.21;27.43;99687.72;5062735;28;20037;-58
2021/03/06 09:34:38;;;;;;;4.55;2.60;;;;;;;3.19;27.31;99681.66;5055545;28;20029;-60
2021/03/06 09:37:18;;;;;;;4.57;2.85;;;;;;;3.27;27.67;99694.50;5053864;28;20068;-60
2021/03/06 09:39:45;;;;;;;7.18;2.70;;;;;;;2.96;29.11;99694.28;5068808;28;20032;-58
2021/03/06 09:42:16;;;;;;;6.40;2.90;;;;;;;2.55;32.33;99706.00;5061067;28;20073;-59
2021/03/06 09:44:48;;;;;;;11.50;3.63;;;;;;;2.04;33.99;99692.59;5070813;28;20052;-60
2021/03/06 09:47:21;;;;;;;6.22;3.03;;;;;;;1.53;34.89;99632.47;5066222;28;20036;-61
2021/03/06 09:49:47;;;;;;;3.78;2.20;;;;;;;1.94;34.36;99713.28;5052024;28;20036;-53
2021/03/06 09:52:13;;;;;;;4.47;2.90;;;;;;;1.63;35.54;99713.84;5056163;28;20131;-59
2021/03/06 09:54:39;;;;;;;4.53;2.55;;;;;;;1.37;36.31;99706.19;5055872;28;20119;-56
2021/03/06 09:57:06;;;;;;;5.88;3.00;;;;;;;1.31;37.47;99690.63;5056334;28;20044;-59
2021/03/06 09:59:41;;;;;;;7.25;3.03;;;;;;;1.88;38.88;99712.72;5057657;28;20029;-58
2021/03/06 10:02:08;;;;;;;4.33;2.80;;;;;;;2.34;36.88;99699.97;5057223;28;20040;-58
2021/03/06 10:04:35;;;;;;;4.93;2.90;;;;;;;2.50;35.99;99688.66;5057778;28;20381;-60
2021/03/06 10:07:06;;;;;;;6.10;2.60;;;;;;;2.55;35.09;99703.38;5058297;28;20028;-61
2021/03/06 10:09:33;;;;;;;5.32;3.00;;;;;;;2.47;35.39;99692.31;5059988;28;20136;-58
2021/03/06 10:12:07;;;;;;;5.38;3.45;;;;;;;2.50;35.10;99693.94;5050348;28;20166;-58
2021/03/06 10:14:33;;;;;;;4.50;3.00;;;;;;;2.32;34.65;99669.28;5060128;28;20044;-56
2021/03/06 10:17:09;;;;;;;4.00;2.92;;;;;;;2.53;35.48;99686.72;5050554;28;20106;-58
2021/03/06 10:19:45;;;;;;;;;;;;;;;2.85;33.68;99692.19;5059975;28;20059;-60
2021/03/06 10:22:13;;;;;;;5.85;2.95;;;;;;;2.85;33.58;99670.16;5069981;28;19916;-50
2021/03/06 10:24:55;;;;;;;6.80;3.10;;;;;;;2.90;33.91;99680.50;5071073;28;20043;-60
2021/03/06 10:27:36;;;;;;;5.55;3.35;;;;;;;2.93;34.23;99675.94;5069163;28;20033;-59
2021/03/06 10:30:23;;;;;;;4.38;3.03;;;;;;;3.03;33.82;99670.16;5068405;28;20060;-60
2021/03/06 10:32:55;;;;;;;6.97;3.00;;;;;;;2.99;33.69;99651.81;5067986;28;20052;-60
2021/03/06 10:35:43;;;;;;;6.03;3.17;;;;;;;3.26;32.74;99655.75;5069090;28;20028;-58
2021/03/06 10:38:18;;;;;;;4.97;3.00;;;;;;;3.25;32.34;99670.75;5069284;28;20133;-58
2021/03/06 10:41:00;;;;;;;5.88;3.00;;;;;;;3.26;32.24;99659.22;5070520;28;20028;-60
2021/03/06 10:43:29;;;;;;;4.25;2.70;;;;;;;3.36;31.88;99648.13;5070300;28;20561;-59
2021/03/06 10:46:07;;;;;;;4.03;2.90;;;;;;;3.32;32.28;99622.78;5068595;28;20054;-63
2021/03/06 10:48:34;;;;;;;6.70;4.15;;;;;;;3.51;31.48;99649.97;5070102;28;20439;-60
2021/03/06 10:50:59;;;;;;;3.58;2.80;;;;;;;3.38;31.15;99648.94;5070031;28;20148;-60
2021/03/06 10:53:25;;;;;;;6.07;3.53;;;;;;;3.27;30.72;99655.63;5070245;28;20552;-59
2021/03/06 10:55:52;;;;;;;7.00;3.25;;;;;;;3.12;31.57;99659.94;5070358;28;20028;-58
2021/03/06 10:58:19;;;;;;;4.88;2.92;;;;;;;3.03;31.01;99656.94;5068335;28;20066;-58
2021/03/06 11:00:48;;;;;;;8.20;3.38;;;;;;;2.87;31.12;99663.00;5068589;28;20052;-58
2021/03/06 11:03:17;;;;;;;5.13;3.00;;;;;;;2.61;31.33;99641.38;5070057;28;20036;-60
2021/03/06 11:05:43;;;;;;;5.13;2.97;;;;;;;2.14;31.73;99592.66;5070379;28;20059;-61
2021/03/06 11:08:20;;;;;;;7.80;3.33;;;;;;;2.26;32.36;99651.94;5068959;28;20036;-58
2021/03/06 11:10:51;;;;;;;5.88;3.50;;;;;;;1.95;32.62;99646.34;5068178;28;20036;-57
2021/03/06 11:13:18;;;;;;;6.07;2.85;;;;;;;1.72;32.86;99655.38;5067895;28;20036;-61
2021/03/06 11:15:50;;;;;;;3.20;2.33;;;;;;;1.24;33.17;99653.13;5050081;28;20041;-51
2021/03/06 11:18:20;;;;;;;4.00;2.42;;;;;;;0.78;33.72;99647.25;5049962;28;20120;-58
2021/03/06 11:20:48;;;;;;;5.35;2.38;;;;;;;0.49;34.65;99659.88;5050033;28;20124;-61
2021/03/06 11:23:14;;;;;;;5.90;2.70;;;;;;;0.14;34.71;99639.34;5050394;28;20033;-57
2021/03/06 11:25:40;;;;;;;3.85;2.53;;;;;;;-0.02;35.72;99646.97;5051028;28;20476;-59
2021/03/06 11:28:07;;;;;;;5.50;2.67;;;;;;;0.10;35.81;99664.91;5049283;28;20043;-59
2021/03/06 11:30:34;;;;;;;7.30;3.08;;;;;;;0.16;35.98;99657.69;5066749;28;20408;-59
2021/03/06 11:33:01;;;;;;;5.35;3.15;;;;;;;0.23;36.60;99648.59;5069508;28;20056;-56
2021/03/06 11:35:28;;;;;;;5.47;2.80;;;;;;;0.22;36.06;99655.66;5069758;28;20036;-55
2021/03/06 11:37:53;;;;;;;7.93;2.88;;;;;;;0.18;36.85;99637.41;5070005;28;20108;-61
2021/03/06 11:40:22;;;;;;;5.68;3.00;;;;;;;0.13;36.86;99645.53;5057101;28;20037;-61
2021/03/06 11:42:48;;;;;;;7.25;3.13;;;;;;;0.09;36.81;99634.25;5049677;28;20033;-59